WFDK1: Walnut River, Winfield, KS

Data processed at Fri Nov 09 2018 23:32


All information presented herein is the property of the government of the United States of America and may be revised or deleted at any time without prior notice.
Dissemination of this information without the expressed written consent of the Public Affairs Office, Tulsa District U.S. Army Corps of Engineers is strictly prohibited.
These data are gathered electronically and, as presented, have not undergone any form of quality control. These data are not guaranteed to be valid or correct.
Go to home page.
Go to station list.
Go to home page.

Upstream stations:

Downstream station:
Previous Day
Next Day
Current Day
    
SHEF ID:       WFDK1     WALNUT R AT WINFIELD, KS
STATION TYPE:  

               PRECIP     STAGE  RIV-FLOW  BAT-LOAD
                   in        ft       cfs      volt
              Ccp-Rev   Ccp-Rev   Ccp-Rev   Ccp-Rev
(US/Central)
11/09 00:00      0.00      2.14       401     12.49
11/09 01:00      0.00      2.14       401     12.49
11/09 02:00      0.00      2.13       397     12.49
11/09 03:00      0.00      2.14       401     12.41
11/09 04:00      0.00      2.14       401     12.41
11/09 05:00      0.00      2.14       401     12.41
11/09 06:00      0.00      2.13       397     12.41
11/09 07:00      0.00      2.14       401     12.41
11/09 08:00      0.00      2.14       401     12.41
11/09 09:00      0.00      2.14       401     12.65
11/09 10:00      0.00      2.15       406     13.76
11/09 11:00      0.00      2.14       401     13.76
11/09 12:00      0.00      2.16       411     13.76
11/09 13:00      0.00      2.15       406     13.21
11/09 14:00      0.00      2.15       406     13.53
11/09 15:00      0.00      2.16       411     13.53
11/09 16:00      0.00      2.15       406     13.92
11/09 17:00      0.00      2.16       411     13.44
11/09 18:00      0.00      2.15       406     12.89
11/09 19:00      0.00      2.16       411     12.81
11/09 20:00      0.00      2.16       411     12.73
11/09 21:00      0.00      2.16       411     12.65
11/09 22:00      0.00      2.17       415     12.65
11/09 23:00      0.00      2.16       411     12.65